Terminal Aerodrome Forecast
Issued by NWS

Home | Current Version | Previous Version | Text Only | Print | Product List | Glossary On
Versions: 1 2 3 4 5 6 7 8 9 10 11 12 13 14
000
FTUS46 KHNX 241730
TAFFAT
TAF
KFAT 241730Z 2418/2518 14010KT P6SM FEW050 BKN100
     FM242100 13010KT P6SM -SHRA OVC070
     FM250000 12011KT 5SM -RA BKN030 OVC050
     FM251000 10004KT P6SM BKN030=

USA.gov is the U.S. government's official web portal to all federal, state and local government web resources and services.